Time;durP1;ratioP1;P1;durP2;ratioP2;P2;SDS_P1;SDS_P2;PMS_P1;PMS_P2;Temp;Humidity;BMP_temperature;BMP_pressure;BME280_temperature;BME280_humidity;BME280_pressure;Samples;Min_cycle;Max_cycle;Signal;HPM_P1;HPM_P2
2022/08/10 10:07:05;;;;;;;;;11.67;9.33;;;;;28.18;33.12;101704.13;5083114;27;45779;-66
2022/08/10 10:09:41;;;;;;;;;14.33;14.33;;;;;28.51;32.00;101704.91;5049307;28;45616;-68
2022/08/10 10:12:25;;;;;;;;;14.67;12.00;;;;;28.78;31.53;101695.28;5055376;28;45520;-69
2022/08/10 10:15:52;;;;;;;;;16.33;15.00;;;;;29.08;32.00;101693.47;5069208;27;45471;-71
2022/08/10 10:18:30;;;;;;;;;14.67;13.00;;;;;29.38;31.02;101693.41;5070918;28;45509;-75
2022/08/10 10:21:15;;;;;;;;;15.33;13.33;;;;;29.66;31.08;101694.41;5070783;28;45575;-69
2022/08/10 10:24:05;;;;;;;;;8.50;8.50;;;;;29.91;30.71;101680.19;5055182;28;45343;-69
2022/08/10 10:26:49;;;;;;;;;10.00;9.75;;;;;30.12;30.18;101677.09;5049717;28;45306;-69
2022/08/10 10:29:20;;;;;;;;;14.50;13.00;;;;;30.25;28.92;101677.97;5049947;28;46717;-70
2022/08/10 10:32:07;;;;;;;;;12.25;12.25;;;;;30.38;28.31;101681.66;5049502;28;45377;-69
2022/08/10 10:34:53;;;;;;;;;11.50;11.50;;;;;30.56;28.50;101673.25;5049700;28;45374;-69
2022/08/10 10:37:21;;;;;;;;;14.25;13.25;;;;;30.57;28.02;101662.34;5049082;28;45358;-70
2022/08/10 10:39:54;;;;;;;;;12.75;12.75;;;;;30.77;27.37;101674.50;5049605;28;46229;-69
2022/08/10 10:42:45;;;;;;;;;14.00;11.50;;;;;30.78;27.84;101653.75;5068886;28;45686;-70
2022/08/10 10:45:17;;;;;;;;;13.00;13.00;;;;;30.97;27.51;101662.34;5069644;27;45449;-72
2022/08/10 10:47:54;;;;;;;;;11.75;11.50;;;;;31.14;26.61;101663.03;5073228;28;45695;-69
2022/08/10 10:50:47;;;;;;;;;13.25;12.00;;;;;31.22;26.81;101661.47;5069192;28;45459;-69
2022/08/10 10:53:47;;;;;;;;;11.50;10.75;;;;;31.28;25.31;101652.09;5069444;28;46084;-70
2022/08/10 10:56:50;;;;;;;;;10.75;10.75;;;;;31.44;25.63;101666.28;5069144;27;45505;-66
2022/08/10 10:59:41;;;;;;;;;12.25;12.25;;;;;31.45;24.58;101648.19;5057966;28;45572;-66
2022/08/10 11:02:35;;;;;;;;;13.50;12.00;;;;;31.46;25.71;101637.28;5066605;28;46322;-65
2022/08/10 11:05:29;;;;;;;;;10.50;10.50;;;;;31.65;25.65;101638.63;5075669;27;45798;-69
2022/08/10 11:08:00;;;;;;;;;14.25;12.50;;;;;31.75;24.89;101634.28;5073362;27;45325;-68
2022/08/10 11:10:52;;;;;;;;;11.00;11.00;;;;;31.84;23.96;101635.44;5085593;27;45300;-69
2022/08/10 11:13:39;;;;;;;;;12.25;11.50;;;;;31.95;24.28;101640.97;5089765;27;46287;-69
2022/08/10 11:16:17;;;;;;;;;13.50;12.00;;;;;31.99;23.72;101631.63;5086920;27;45459;-67
2022/08/10 11:18:45;;;;;;;;;12.00;10.00;;;;;32.09;23.92;101629.94;5064508;28;45562;-67
2022/08/10 11:21:54;;;;;;;;;10.50;10.50;;;;;32.26;23.95;101625.09;5058963;28;45430;-67
2022/08/10 11:24:35;;;;;;;;;11.25;11.25;;;;;32.32;23.25;101620.09;5076849;28;46634;-66
2022/08/10 11:27:28;;;;;;;;;10.50;10.50;;;;;32.30;23.60;101615.75;5073203;27;45522;-67
2022/08/10 11:30:01;;;;;;;;;17.75;15.00;;;;;32.42;23.84;101613.97;5073381;28;45477;-68
2022/08/10 11:32:29;;;;;;;;;14.00;13.50;;;;;32.45;23.02;101622.72;5068392;28;45398;-70
2022/08/10 11:35:25;;;;;;;;;23.33;22.00;;;;;32.42;23.39;101616.69;5076905;28;45489;-69
2022/08/10 11:38:09;;;;;;;;;14.50;14.50;;;;;32.44;22.90;101626.41;5055893;28;45548;-70
2022/08/10 11:40:43;;;;;;;;;22.00;22.00;;;;;32.47;23.16;101617.19;5072336;28;45697;-74
2022/08/10 11:43:25;;;;;;;;;19.00;18.00;;;;;32.58;23.16;101606.41;5072199;28;45459;-71
2022/08/10 11:46:23;;;;;;;;;12.00;12.00;;;;;32.46;22.38;101594.63;5073623;27;45776;-68
2022/08/10 11:49:07;;;;;;;;;15.25;15.00;;;;;32.36;22.42;101574.63;5074855;28;45433;-69
2022/08/10 11:51:43;;;;;;;;;12.75;12.75;;;;;32.58;22.63;101595.56;5069455;28;45415;-70
2022/08/10 11:54:21;;;;;;;;;13.25;11.75;;;;;32.80;22.79;101593.88;5072945;28;45531;-69
2022/08/10 11:56:51;;;;;;;;;19.00;17.00;;;;;32.97;22.54;101598.84;5072245;28;45504;-71
2022/08/10 12:02:07;;;;;;;;;14.50;13.50;;;;;33.20;22.68;101575.31;5057668;28;45619;-69
2022/08/10 12:04:35;;;;;;;;;12.50;12.25;;;;;33.35;21.43;101587.63;5053254;28;46100;-70
2022/08/10 12:07:04;;;;;;;;;14.75;12.75;;;;;33.46;21.33;101588.59;5066056;28;46255;-70
2022/08/10 12:09:31;;;;;;;;;15.00;13.25;;;;;33.44;21.37;101582.47;5058249;28;45555;-70
2022/08/10 12:11:59;;;;;;;;;13.75;12.00;;;;;33.45;21.81;101587.75;5063914;28;45512;-70
2022/08/10 12:14:34;;;;;;;;;13.50;13.50;;;;;33.55;21.86;101579.72;5061582;27;45687;-73
2022/08/10 12:17:14;;;;;;;;;12.75;11.50;;;;;33.36;21.08;101556.81;5067119;28;45852;-69
2022/08/10 12:20:08;;;;;;;;;12.50;12.50;;;;;33.36;21.39;101569.47;5074350;28;45468;-70
2022/08/10 12:23:30;;;;;;;;;11.25;11.25;;;;;33.49;21.79;101577.50;5065529;28;45693;-69
2022/08/10 12:26:00;;;;;;;;;12.75;12.00;;;;;33.36;21.73;101548.66;5030077;28;45527;-70
2022/08/10 12:28:31;;;;;;;;;14.00;13.00;;;;;33.57;21.27;101581.34;5066363;28;45586;-71
2022/08/10 12:31:00;;;;;;;;;11.25;11.25;;;;;33.57;21.52;101575.06;5068629;28;45487;-70
2022/08/10 12:33:34;;;;;;;;;12.75;12.00;;;;;33.70;21.29;101570.34;5069556;28;45786;-70
2022/08/10 12:36:32;;;;;;;;;12.75;12.00;;;;;33.68;21.18;101538.88;5070672;28;46424;-70
2022/08/10 12:39:11;;;;;;;;;11.75;11.75;;;;;33.98;21.33;101560.75;5063850;28;45383;-71
2022/08/10 12:41:43;;;;;;;;;12.00;12.00;;;;;34.14;21.20;101560.31;5061153;28;45897;-70
2022/08/10 12:44:14;;;;;;;;;10.75;10.75;;;;;34.26;21.58;101546.69;5064046;28;45468;-71
2022/08/10 12:47:10;;;;;;;;;13.50;12.75;;;;;34.34;20.77;101550.47;5059620;28;45767;-72
2022/08/10 12:49:45;;;;;;;;;11.00;11.00;;;;;34.34;21.04;101555.91;5061931;28;46012;-73
2022/08/10 12:52:18;;;;;;;;;9.60;9.60;;;;;34.21;21.80;101523.47;5058843;28;46525;-73
2022/08/10 12:54:46;;;;;;;;;12.50;12.00;;;;;34.52;20.42;101542.56;5068764;28;45434;-72
2022/08/10 12:57:18;;;;;;;;;11.50;9.75;;;;;34.57;19.95;101547.59;5053030;28;45530;-72
2022/08/10 12:59:50;;;;;;;;;10.50;10.50;;;;;34.69;20.17;101543.84;5081646;27;47511;-71
2022/08/10 13:02:24;;;;;;;;;10.20;10.20;;;;;34.80;19.82;101545.63;5056094;28;45780;-72
2022/08/10 13:04:54;;;;;;;;;12.50;10.25;;;;;34.68;19.35;101522.22;5060385;28;45473;-71
2022/08/10 13:07:35;;;;;;;;;10.25;10.00;;;;;34.72;19.67;101529.13;5063512;28;45516;-73
2022/08/10 13:10:05;;;;;;;;;11.00;11.00;;;;;34.69;19.72;101483.13;5067772;28;46513;-70
2022/08/10 13:12:36;;;;;;;;;4.60;4.60;;;;;35.18;20.34;101517.72;5056393;28;45592;-70
2022/08/10 13:15:25;;;;;;;;;12.00;10.80;;;;;35.12;19.62;101528.31;5066329;28;45640;-70
2022/08/10 13:17:53;;;;;;;;;12.50;11.50;;;;;34.92;20.07;101528.19;5062611;28;45543;-69
2022/08/10 13:20:25;;;;;;;;;9.75;9.75;;;;;34.78;19.74;101525.84;5057926;28;46320;-68
2022/08/10 13:22:55;;;;;;;;;10.00;10.00;;;;;34.83;19.96;101529.91;5062717;28;45588;-67
2022/08/10 13:25:28;;;;;;;;;9.60;9.60;;;;;34.72;19.93;101516.38;5060434;28;45524;-70
2022/08/10 13:27:58;;;;;;;;;9.00;9.00;;;;;34.84;19.96;101511.72;5064777;28;45983;-66
2022/08/10 13:30:28;;;;;;;;;8.50;8.00;;;;;35.10;20.88;101513.97;5062012;28;45490;-66
2022/08/10 13:32:56;;;;;;;;;11.20;11.00;;;;;34.97;19.50;101482.38;5060585;28;45454;-68
2022/08/10 13:35:23;;;;;;;;;10.40;9.60;;;;;35.08;19.77;101515.97;5063964;28;45866;-67
2022/08/10 13:37:54;;;;;;;;;9.00;9.00;;;;;34.96;19.07;101504.31;5053792;28;45429;-68
2022/08/10 13:40:21;;;;;;;;;11.50;10.50;;;;;34.73;19.30;101515.38;5051258;28;46364;-66
2022/08/10 13:42:50;;;;;;;;;10.00;10.00;;;;;34.53;19.29;101514.38;5073241;28;45470;-69
2022/08/10 13:45:21;;;;;;;;;11.50;10.25;;;;;34.41;19.45;101508.16;5072956;28;45345;-69
2022/08/10 13:47:55;;;;;;;;;7.75;7.75;;;;;34.51;20.32;101500.03;5067084;28;45413;-68
2022/08/10 13:50:25;;;;;;;;;10.00;9.25;;;;;34.62;19.22;101491.84;5073213;28;46048;-68
2022/08/10 13:52:54;;;;;;;;;9.00;9.00;;;;;34.57;18.54;101482.31;5073069;28;45490;-68
2022/08/10 13:55:26;;;;;;;;;8.25;8.00;;;;;34.57;19.44;101487.75;5073096;28;45453;-69
2022/08/10 13:57:57;;;;;;;;;8.75;8.75;;;;;34.62;18.79;101497.28;5073364;28;45569;-65
2022/08/10 14:00:38;;;;;;;;;9.75;9.75;;;;;34.52;17.90;101499.03;5055041;28;46152;-68
2022/08/10 14:03:13;;;;;;;;;7.40;7.40;;;;;34.34;17.71;101487.94;5072810;28;45887;-66
2022/08/10 14:05:43;;;;;;;;;8.25;8.25;;;;;34.36;18.66;101496.81;5072968;28;45346;-65
2022/08/10 14:08:16;;;;;;;;;8.75;8.75;;;;;34.38;19.06;101478.53;5073429;28;45645;-66
2022/08/10 14:10:43;;;;;;;;;10.00;9.00;;;;;34.58;18.37;101481.34;5072988;28;45465;-68
2022/08/10 14:13:12;;;;;;;;;5.80;5.80;;;;;34.60;18.71;101482.94;5073210;28;45498;-68
2022/08/10 14:15:39;;;;;;;;;8.00;8.00;;;;;34.49;18.18;101465.81;5073141;28;45614;-71
2022/08/10 14:18:08;;;;;;;;;8.25;8.25;;;;;34.50;19.14;101483.84;5073361;28;46166;-68
2022/08/10 14:20:35;;;;;;;;;8.00;8.00;;;;;34.49;19.03;101480.28;5054466;28;46108;-70
2022/08/10 14:23:19;;;;;;;;;6.40;6.40;;;;;34.64;19.73;101459.03;5068381;28;45388;-69
2022/08/10 14:26:02;;;;;;;;;10.50;10.50;;;;;34.77;18.65;101470.56;5047356;28;45386;-66
2022/08/10 14:28:49;;;;;;;;;7.25;7.25;;;;;34.75;18.77;101475.28;5055378;28;45711;-69
2022/08/10 14:31:17;;;;;;;;;12.00;9.00;;;;;34.74;18.46;101472.69;5068017;28;45657;-65
2022/08/10 14:33:49;;;;;;;;;9.20;9.00;;;;;34.67;18.81;101468.78;5072833;28;45651;-68
2022/08/10 14:36:24;;;;;;;;;7.75;7.75;;;;;34.70;18.54;101463.09;5064792;28;45460;-66
2022/08/10 14:38:53;;;;;;;;;10.50;9.75;;;;;34.61;18.62;101457.47;5069137;28;45379;-66
2022/08/10 14:41:26;;;;;;;;;10.75;10.75;;;;;34.56;19.31;101446.09;5063385;28;46194;-71
2022/08/10 14:43:56;;;;;;;;;9.80;9.40;;;;;34.76;19.14;101459.81;5074134;28;45536;-68
2022/08/10 14:46:26;;;;;;;;;9.20;8.40;;;;;34.69;19.87;101445.03;5074081;28;45407;-68
2022/08/10 14:48:54;;;;;;;;;10.00;9.50;;;;;34.83;19.17;101458.25;5073798;28;45411;-65
2022/08/10 14:51:26;;;;;;;;;9.25;9.25;;;;;34.73;19.50;101447.34;5075248;27;45436;-67
2022/08/10 14:53:54;;;;;;;;;9.40;9.00;;;;;34.83;19.02;101450.09;5071537;28;45476;-67
2022/08/10 14:56:26;;;;;;;;;11.00;10.75;;;;;34.82;19.28;101432.06;5078946;28;45593;-67
2022/08/10 14:59:03;;;;;;;;;9.25;9.25;;;;;34.85;18.92;101453.53;5079271;27;45339;-67
2022/08/10 15:01:30;;;;;;;;;11.00;11.00;;;;;34.84;19.03;101451.84;5081625;27;46269;-67
2022/08/10 15:04:03;;;;;;;;;9.00;8.40;;;;;34.58;19.38;101448.69;5077682;28;45364;-67
2022/08/10 15:06:36;;;;;;;;;9.40;8.80;;;;;34.58;19.40;101438.66;5076334;27;45283;-66
2022/08/10 15:09:12;;;;;;;;;8.25;8.25;;;;;34.79;19.57;101445.97;5078298;28;45360;-69
2022/08/10 15:11:38;;;;;;;;;9.25;9.25;;;;;34.93;19.57;101442.84;5064904;28;45467;-68
2022/08/10 15:14:06;;;;;;;;;10.00;8.60;;;;;34.87;19.45;101424.34;5075701;27;45679;-71
2022/08/10 15:16:33;;;;;;;;;11.80;10.60;;;;;34.95;19.61;101440.81;5057420;28;45764;-71
2022/08/10 15:19:04;;;;;;;;;8.50;8.50;;;;;34.98;19.57;101426.09;5076396;28;45347;-70
2022/08/10 15:21:34;;;;;;;;;9.25;8.25;;;;;35.14;19.59;101431.03;5073367;28;46355;-69
2022/08/10 15:24:02;;;;;;;;;9.40;9.40;;;;;35.19;19.24;101418.72;5064482;28;45801;-70
2022/08/10 15:26:29;;;;;;;;;8.20;8.00;;;;;35.21;19.51;101426.72;5071495;28;45448;-69
2022/08/10 15:29:03;;;;;;;;;10.25;9.75;;;;;35.16;18.91;101435.31;5076348;28;45416;-69
2022/08/10 15:31:32;;;;;;;;;9.00;9.00;;;;;35.12;19.43;101438.47;5075874;28;45434;-69
2022/08/10 15:39:36;;;;;;;;;8.75;8.75;;;;;35.37;19.70;101424.31;5055531;28;45407;-68
2022/08/10 15:42:08;;;;;;;;;9.50;9.50;;;;;35.41;18.69;101423.03;5072200;27;45831;-69
2022/08/10 15:44:42;;;;;;;;;9.40;9.40;;;;;35.38;19.59;101415.16;5062575;28;45481;-71
2022/08/10 15:47:19;;;;;;;;;10.50;9.50;;;;;35.32;19.34;101417.59;5076657;28;45635;-69
2022/08/10 15:49:51;;;;;;;;;9.75;9.75;;;;;35.20;19.06;101409.53;5075150;28;45618;-68
2022/08/10 15:52:41;;;;;;;;;9.20;7.80;;;;;35.11;20.05;101406.81;5063686;28;46563;-71
2022/08/10 15:55:23;;;;;;;;;10.20;8.80;;;;;35.08;19.87;101409.78;5067008;28;45504;-70
2022/08/10 15:58:00;;;;;;;;;9.00;9.00;;;;;34.99;19.37;101386.97;5073210;28;45548;-69
2022/08/10 16:00:27;;;;;;;;;8.00;8.00;;;;;35.00;19.44;101388.69;5056905;28;45647;-69
2022/08/10 16:03:07;;;;;;;;;9.75;9.25;;;;;34.98;20.23;101401.59;5072442;28;45490;-69
2022/08/10 16:05:50;;;;;;;;;9.80;9.80;;;;;34.96;20.11;101398.16;5072750;28;45641;-68
2022/08/10 16:08:24;;;;;;;;;10.75;9.25;;;;;34.92;20.15;101389.41;5073134;28;45456;-69
2022/08/10 16:11:04;;;;;;;;;7.75;7.75;;;;;34.85;20.14;101393.69;5073348;28;45339;-69
2022/08/10 16:13:32;;;;;;;;;12.25;11.50;;;;;34.68;19.69;101394.34;5071962;28;45478;-68
2022/08/10 16:16:02;;;;;;;;;9.60;9.60;;;;;34.48;19.86;101379.78;5071194;27;45575;-69
2022/08/10 16:18:30;;;;;;;;;11.00;11.00;;;;;34.46;19.65;101398.97;5072833;28;45512;-68
2022/08/10 16:21:02;;;;;;;;;10.25;10.25;;;;;34.37;20.14;101389.75;5072887;28;45572;-67
2022/08/10 16:23:31;;;;;;;;;7.25;7.25;;;;;34.25;20.38;101358.22;5072633;28;46186;-67
2022/08/10 16:26:14;;;;;;;;;9.20;9.20;;;;;34.40;20.07;101377.75;5073396;28;45374;-68
2022/08/10 16:28:48;;;;;;;;;8.25;7.50;;;;;34.48;20.09;101379.78;5075806;28;45557;-68
2022/08/10 16:31:19;;;;;;;;;10.00;9.00;;;;;34.39;20.42;101371.44;5058293;28;45394;-68
2022/08/10 16:33:52;;;;;;;;;11.75;10.75;;;;;34.37;19.91;101384.31;5076894;28;46239;-68
2022/08/10 16:36:19;;;;;;;;;10.50;9.25;;;;;34.25;19.65;101376.41;5058118;28;45477;-68
2022/08/10 16:38:48;;;;;;;;;10.00;10.00;;;;;34.08;19.45;101373.28;5072334;28;45432;-68
2022/08/10 16:41:17;;;;;;;;;8.25;8.25;;;;;34.02;19.65;101384.66;5072279;28;45872;-69
2022/08/10 16:43:47;;;;;;;;;11.25;10.75;;;;;33.86;19.49;101370.69;5072404;28;46788;-67
2022/08/10 16:46:17;;;;;;;;;9.00;9.00;;;;;33.71;19.24;101360.16;5065491;28;45717;-69
2022/08/10 16:48:46;;;;;;;;;7.00;7.00;;;;;33.68;19.94;101368.59;5072448;28;45735;-69
2022/08/10 16:51:19;;;;;;;;;11.00;9.50;;;;;33.68;20.04;101378.59;5034748;28;45638;-67
2022/08/10 16:53:47;;;;;;;;;9.00;9.00;;;;;33.60;20.23;101381.94;5060087;28;46520;-68
2022/08/10 16:56:15;;;;;;;;;9.00;9.00;;;;;33.50;20.59;101384.56;5063533;28;45642;-69
2022/08/10 16:58:53;;;;;;;;;7.00;7.00;;;;;33.32;20.54;101380.72;5061028;28;45589;-68
2022/08/10 17:01:24;;;;;;;;;10.25;10.00;;;;;33.22;21.25;101375.19;5064700;28;45469;-69
2022/08/10 17:03:54;;;;;;;;;10.00;10.00;;;;;33.12;21.48;101380.50;5064935;28;45989;-69
2022/08/10 17:06:26;;;;;;;;;11.00;11.00;;;;;33.02;21.80;101378.66;5070614;28;45348;-69
2022/08/10 17:08:56;;;;;;;;;11.00;9.75;;;;;32.92;21.74;101382.13;5072040;28;45835;-70
2022/08/10 17:11:28;;;;;;;;;9.75;9.75;;;;;32.77;21.44;101380.69;5064725;28;45848;-70
2022/08/10 17:13:59;;;;;;;;;10.00;10.00;;;;;32.68;21.59;101362.47;5071061;28;46231;-70
2022/08/10 17:16:33;;;;;;;;;10.75;10.75;;;;;32.61;21.76;101372.94;5072175;28;45700;-70
2022/08/10 17:19:05;;;;;;;;;9.50;9.50;;;;;32.43;21.74;101353.56;5071235;28;45402;-69
2022/08/10 17:21:36;;;;;;;;;9.00;9.00;;;;;32.41;22.12;101358.25;5072356;28;45311;-69
2022/08/10 17:24:05;;;;;;;;;10.50;9.25;;;;;32.43;21.86;101371.69;5070667;28;46192;-69
2022/08/10 17:26:35;;;;;;;;;12.75;12.00;;;;;32.31;22.29;101357.25;5063150;28;45869;-68
2022/08/10 17:29:16;;;;;;;;;11.50;10.50;;;;;32.30;22.18;101361.84;5068851;28;45818;-69
2022/08/10 17:31:48;;;;;;;;;13.50;13.25;;;;;32.25;22.55;101371.31;5059350;28;45651;-68
2022/08/10 17:34:27;;;;;;;;;43.00;34.33;;;;;32.20;22.33;101376.22;5067838;28;45704;-69
2022/08/10 17:37:09;;;;;;;;;25.67;23.33;;;;;32.09;22.34;101356.25;5039060;28;45587;-67
2022/08/10 17:39:53;;;;;;;;;24.33;22.00;;;;;32.01;22.10;101353.31;5057234;28;45501;-67
2022/08/10 17:42:21;;;;;;;;;23.67;23.33;;;;;31.89;22.60;101347.00;5086656;27;45548;-67
2022/08/10 17:44:50;;;;;;;;;16.00;15.50;;;;;31.97;22.57;101364.50;5071548;28;45326;-68
2022/08/10 17:47:16;;;;;;;;;19.67;19.00;;;;;31.84;22.81;101353.72;5070692;28;45414;-69
2022/08/10 17:49:44;;;;;;;;;21.75;18.75;;;;;31.85;22.60;101359.03;5070908;28;45672;-66
2022/08/10 17:52:17;;;;;;;;;23.50;19.00;;;;;31.69;22.45;101351.22;5071079;28;45869;-66
2022/08/10 17:54:47;;;;;;;;;18.00;18.00;;;;;31.78;22.75;101367.75;5067305;28;45422;-69
2022/08/10 17:57:17;;;;;;;;;19.33;19.33;;;;;31.77;23.21;101360.59;5067683;28;46442;-67
2022/08/10 17:59:52;;;;;;;;;19.33;19.00;;;;;31.61;23.32;101332.03;5071798;28;45747;-69
2022/08/10 18:02:27;;;;;;;;;18.00;18.00;;;;;31.65;23.44;101346.16;5050179;28;45479;-66
2022/08/10 18:04:57;;;;;;;;;17.25;16.00;;;;;31.56;23.25;101336.94;5071167;28;46097;-67
2022/08/10 18:07:32;;;;;;;;;20.00;17.00;;;;;31.71;22.81;101364.66;5050413;28;45883;-67
2022/08/10 18:10:00;;;;;;;;;12.75;12.75;;;;;31.57;23.35;101359.44;5071378;28;45543;-68
2022/08/10 18:12:52;;;;;;;;;12.50;11.50;;;;;31.55;23.47;101370.38;5069180;28;45519;-68
2022/08/10 18:15:23;;;;;;;;;13.25;13.25;;;;;31.60;23.02;101376.31;5070465;28;46033;-69
2022/08/10 18:17:53;;;;;;;;;12.75;12.50;;;;;31.56;23.51;101369.44;5065849;28;45457;-70
2022/08/10 18:20:21;;;;;;;;;12.75;12.25;;;;;31.45;23.16;101369.38;5071153;28;45298;-69
2022/08/10 18:22:53;;;;;;;;;12.00;12.00;;;;;31.44;23.36;101373.94;5073116;28;45538;-67
2022/08/10 18:25:25;;;;;;;;;12.50;12.50;;;;;31.36;23.64;101362.78;5070402;28;46197;-67
2022/08/10 18:27:55;;;;;;;;;10.25;10.25;;;;;31.37;24.04;101374.47;5076366;28;45311;-69
2022/08/10 18:30:23;;;;;;;;;12.25;12.25;;;;;31.38;24.10;101373.50;5051457;28;46132;-68
2022/08/10 18:32:53;;;;;;;;;12.25;11.50;;;;;31.35;23.87;101380.00;5072490;28;46060;-67
2022/08/10 18:35:30;;;;;;;;;13.00;12.00;;;;;31.26;24.41;101378.84;5069411;28;46443;-69
2022/08/10 18:38:00;;;;;;;;;13.25;12.00;;;;;31.26;24.29;101378.84;5052408;28;46720;-68
2022/08/10 18:40:32;;;;;;;;;14.00;11.25;;;;;31.13;24.48;101360.94;5074722;28;45481;-68
2022/08/10 18:43:01;;;;;;;;;12.50;12.50;;;;;31.19;24.68;101374.03;5068966;28;45627;-68
2022/08/10 18:45:31;;;;;;;;;12.25;11.00;;;;;31.02;23.90;101353.66;5074076;28;46136;-68
2022/08/10 18:48:07;;;;;;;;;13.00;11.50;;;;;31.16;24.05;101385.09;5066987;28;45441;-70
2022/08/10 18:50:48;;;;;;;;;14.75;13.25;;;;;31.11;24.23;101382.72;5053382;28;45791;-68
2022/08/10 18:53:29;;;;;;;;;12.75;11.75;;;;;31.05;23.74;101388.56;5069696;28;45351;-69
2022/08/10 18:56:12;;;;;;;;;13.50;12.75;;;;;31.02;24.50;101376.16;5074495;28;46899;-68
2022/08/10 18:58:46;;;;;;;;;15.00;12.00;;;;;31.00;24.06;101388.91;5073755;28;46171;-69
2022/08/10 19:01:47;;;;;;;;;11.25;11.25;;;;;30.92;25.07;101390.44;5074371;28;45685;-68
2022/08/10 19:04:51;;;;;;;;;13.00;11.25;;;;;30.83;24.73;101390.16;5075204;28;45426;-68
2022/08/10 19:07:44;;;;;;;;;11.75;11.50;;;;;30.80;25.41;101390.38;5079588;27;47117;-68
2022/08/10 19:10:38;;;;;;;;;12.25;12.00;;;;;30.77;25.15;101393.28;5063553;28;45828;-68
2022/08/10 19:13:43;;;;;;;;;12.50;11.00;;;;;30.70;25.42;101397.41;5061870;28;45554;-69
2022/08/10 19:16:29;;;;;;;;;13.25;11.25;;;;;30.70;25.57;101396.53;5060530;28;46695;-67
2022/08/10 19:19:20;;;;;;;;;12.75;12.75;;;;;30.63;25.61;101401.50;5066550;28;45733;-69
2022/08/10 19:22:47;;;;;;;;;13.25;13.25;;;;;30.53;25.07;101398.63;5064175;28;45452;-70
2022/08/10 19:25:48;;;;;;;;;14.75;14.50;;;;;30.53;25.08;101397.75;5024652;28;45421;-68
2022/08/10 19:28:51;;;;;;;;;13.00;12.50;;;;;30.42;25.43;101398.50;5067722;28;45702;-68
2022/08/10 19:31:45;;;;;;;;;13.50;11.00;;;;;30.37;25.76;101401.56;5072154;28;46111;-68
2022/08/10 19:34:28;;;;;;;;;22.00;21.33;;;;;30.35;25.57;101406.22;5066747;28;45470;-68
2022/08/10 19:37:26;;;;;;;;;22.67;17.00;;;;;30.35;25.71;101402.63;5072461;28;45562;-68
2022/08/10 19:40:40;;;;;;;;;17.00;15.00;;;;;30.30;25.11;101405.69;5087191;27;45549;-67
2022/08/10 19:43:37;;;;;;;;;15.00;14.00;;;;;30.31;25.87;101410.09;5024287;28;45536;-67
2022/08/10 19:46:13;;;;;;;;;12.00;12.00;;;;;30.27;25.62;101400.47;5073843;27;45486;-68
2022/08/10 19:49:02;;;;;;;;;14.50;13.50;;;;;30.13;25.71;101385.19;5074042;28;45461;-67
2022/08/10 19:51:52;;;;;;;;;11.25;11.25;;;;;30.21;25.19;101404.44;5066841;28;46490;-68
2022/08/10 19:54:49;;;;;;;;;8.25;8.00;;;;;30.13;25.28;101401.41;5072016;28;45544;-68
2022/08/10 19:57:32;;;;;;;;;12.25;11.25;;;;;30.16;25.53;101412.03;5069834;28;45952;-68
2022/08/10 20:00:01;;;;;;;;;11.50;10.75;;;;;30.16;25.65;101417.44;5069310;28;45390;-68
2022/08/10 20:02:42;;;;;;;;;11.25;11.25;;;;;30.16;25.64;101411.13;5067945;28;45521;-68
2022/08/10 20:05:16;;;;;;;;;12.00;10.75;;;;;30.14;24.98;101408.56;5062032;28;45491;-68
2022/08/10 20:08:02;;;;;;;;;13.75;11.00;;;;;30.14;26.16;101426.59;5067523;28;46583;-68
2022/08/10 20:11:04;;;;;;;;;12.25;11.25;;;;;30.11;25.45;101425.00;5063706;28;45501;-68
2022/08/10 20:13:40;;;;;;;;;13.50;11.75;;;;;30.10;25.97;101416.97;5042990;28;45490;-68
2022/08/10 20:16:15;;;;;;;;;12.00;12.00;;;;;29.99;25.87;101405.09;5065964;28;46413;-67
2022/08/10 20:18:52;;;;;;;;;13.67;12.00;;;;;30.08;25.71;101418.91;5054363;28;46421;-67
2022/08/10 20:21:24;;;;;;;;;15.67;15.67;;;;;30.07;26.15;101419.91;5072176;28;45836;-68
2022/08/10 20:24:02;;;;;;;;;14.00;14.00;;;;;29.99;25.83;101413.19;5072309;28;45878;-67
2022/08/10 20:26:32;;;;;;;;;13.67;13.67;;;;;30.01;26.02;101418.47;5072474;28;45555;-68
2022/08/10 20:29:20;;;;;;;;;16.67;15.00;;;;;29.96;25.96;101412.53;5072051;28;45417;-68
2022/08/10 20:31:51;;;;;;;;;14.00;14.00;;;;;29.93;25.98;101410.91;5064603;28;45351;-67
2022/08/10 20:34:24;;;;;;;;;14.67;14.67;;;;;29.92;26.07;101411.00;5072008;28;45597;-68
2022/08/10 20:37:06;;;;;;;;;15.67;14.33;;;;;29.92;26.17;101411.00;5071124;28;45651;-67
2022/08/10 20:39:59;;;;;;;;;12.33;12.00;;;;;29.88;25.92;101406.81;5072430;28;45830;-66
2022/08/10 20:42:41;;;;;;;;;12.50;12.50;;;;;29.88;26.12;101413.06;5072374;28;45491;-68
2022/08/10 20:45:18;;;;;;;;;16.25;14.00;;;;;29.85;26.39;101413.28;5066520;28;45312;-68
2022/08/10 20:47:49;;;;;;;;;14.50;13.50;;;;;29.77;26.17;101399.44;5070462;28;46288;-68
2022/08/10 20:50:44;;;;;;;;;13.50;12.25;;;;;29.80;26.40;101405.50;5051855;28;45553;-68
2022/08/10 20:53:15;;;;;;;;;12.00;12.00;;;;;29.76;26.30;101398.56;5069649;28;45449;-67
2022/08/10 20:55:53;;;;;;;;;13.00;12.50;;;;;29.79;26.63;101411.00;5071848;27;45468;-68
2022/08/10 20:59:13;;;;;;;;;10.50;10.50;;;;;29.78;26.30;101420.03;5066747;28;45648;-70
2022/08/10 21:01:53;;;;;;;;;15.00;14.00;;;;;29.77;26.13;101412.94;5052553;28;45486;-71
2022/08/10 21:04:35;;;;;;;;;14.33;14.33;;;;;29.75;26.43;101417.56;5070436;28;45746;-67
2022/08/10 21:07:19;;;;;;;;;13.33;11.67;;;;;29.72;26.49;101406.97;5069609;28;45505;-68
2022/08/10 21:10:00;;;;;;;;;12.50;12.00;;;;;29.63;26.50;101392.22;5070589;28;46141;-69
2022/08/10 21:12:54;;;;;;;;;14.67;13.00;;;;;29.72;26.21;101402.44;5068564;28;46009;-68
2022/08/10 21:15:25;;;;;;;;;12.50;12.50;;;;;29.74;26.70;101410.44;5061768;28;45603;-68
2022/08/10 21:17:50;;;;;;;;;11.50;10.50;;;;;29.71;26.53;101405.22;5068707;28;45671;-69
2022/08/10 21:20:16;;;;;;;;;11.25;11.25;;;;;29.66;26.65;101410.06;5062066;28;46019;-70
2022/08/10 21:22:45;;;;;;;;;11.00;10.25;;;;;29.64;26.87;101412.00;5063668;28;45658;-70
2022/08/10 21:25:33;;;;;;;;;14.00;14.00;;;;;29.59;26.64;101413.19;5061897;28;45603;-69
2022/08/10 22:52:57;;;;;;;;;10.00;9.50;;;;;28.63;27.46;101406.00;5070290;28;46308;-71
2022/08/10 23:01:40;;;;;;;;;14.00;12.00;;;;;28.52;27.45;101417.44;5070889;28;45418;-70
2022/08/10 23:04:45;;;;;;;;;13.00;12.50;;;;;28.41;27.32;101418.09;5072480;28;45389;-69
2022/08/10 23:07:16;;;;;;;;;9.25;9.25;;;;;28.43;27.42;101413.47;5053522;28;45578;-69
2022/08/10 23:10:06;;;;;;;;;13.00;13.00;;;;;28.29;27.55;101391.91;5072589;27;45449;-69
2022/08/10 23:12:48;;;;;;;;;9.33;9.33;;;;;28.36;27.76;101408.53;5065319;28;45491;-68
2022/08/10 23:21:21;;;;;;;;;10.33;8.00;;;;;28.23;27.75;101412.00;5055596;28;45501;-70
2022/08/10 23:23:50;;;;;;;;;10.67;10.67;;;;;28.13;28.15;101406.31;5055767;28;45996;-69
2022/08/10 23:26:23;;;;;;;;;8.67;8.67;;;;;28.23;28.92;101416.53;5055405;28;46110;-70
2022/08/10 23:28:52;;;;;;;;;9.33;9.33;;;;;28.16;27.86;101405.25;5055777;28;45495;-68
2022/08/10 23:31:21;;;;;;;;;11.25;9.25;;;;;28.18;27.95;101403.34;5056920;28;45593;-68
2022/08/10 23:33:52;;;;;;;;;10.67;10.67;;;;;28.18;28.04;101416.81;5054335;28;45469;-69
2022/08/10 23:36:25;;;;;;;;;10.00;10.00;;;;;28.17;27.70;101420.47;5060863;28;45728;-68
2022/08/10 23:38:52;;;;;;;;;10.33;10.33;;;;;27.99;27.91;101390.13;5060030;28;45711;-66
2022/08/10 23:41:26;;;;;;;;;10.67;9.33;;;;;27.79;28.08;101382.38;5075933;27;45465;-74
2022/08/10 23:43:56;;;;;;;;;10.33;9.67;;;;;28.01;27.94;101400.81;5061997;28;45497;-67
2022/08/10 23:46:24;;;;;;;;;8.00;8.00;;;;;28.10;28.15;101414.59;5056830;28;45482;-67
2022/08/10 23:48:53;;;;;;;;;10.33;10.00;;;;;28.07;28.08;101408.50;5054890;28;45788;-69
2022/08/10 23:51:29;;;;;;;;;12.33;10.33;;;;;27.99;28.25;101395.53;5054891;28;45367;-68